createdAt,value
2018-03-09T00:02:11.147Z,3.40
2018-03-09T00:04:39.167Z,2.42
2018-03-09T00:07:07.198Z,12.90
2018-03-09T00:09:35.226Z,4.87
2018-03-09T00:12:03.283Z,6.90
2018-03-09T00:14:31.375Z,6.00
2018-03-09T00:16:59.388Z,3.25
2018-03-09T00:19:27.451Z,6.62
2018-03-09T00:21:55.478Z,3.90
2018-03-09T00:24:23.486Z,5.62
2018-03-09T00:26:51.534Z,1.90
2018-03-09T00:29:19.530Z,1.83
2018-03-09T00:31:47.546Z,5.03
2018-03-09T00:34:15.595Z,1.35
2018-03-09T00:36:43.590Z,1.73
2018-03-09T00:39:11.652Z,1.52
2018-03-09T00:41:39.706Z,1.27
2018-03-09T00:44:07.781Z,4.53
2018-03-09T00:46:35.805Z,3.70
2018-03-09T00:49:03.823Z,1.70
2018-03-09T00:51:31.843Z,2.70
2018-03-09T00:53:59.880Z,3.00
2018-03-09T00:56:27.957Z,4.25
2018-03-09T00:58:55.950Z,2.95
2018-03-09T01:01:23.995Z,2.37
2018-03-09T01:03:52.032Z,3.12
2018-03-09T01:06:20.066Z,3.22
2018-03-09T01:08:48.098Z,2.15
2018-03-09T01:11:16.159Z,1.65
2018-03-09T01:13:44.230Z,1.70
2018-03-09T01:16:12.283Z,2.20
2018-03-09T01:18:40.323Z,3.25
2018-03-09T01:21:08.398Z,2.20
2018-03-09T01:23:36.442Z,1.80
2018-03-09T01:26:04.560Z,3.00
2018-03-09T01:28:32.598Z,1.87
2018-03-09T01:31:00.643Z,1.87
2018-03-09T01:33:28.682Z,2.00
2018-03-09T01:35:56.694Z,5.65
2018-03-09T01:38:24.726Z,2.10
2018-03-09T01:40:52.778Z,2.97
2018-03-09T01:43:20.833Z,2.75
2018-03-09T01:45:48.887Z,1.20
2018-03-09T01:48:17.928Z,4.00
2018-03-09T01:50:45.966Z,1.87
2018-03-09T01:53:14.007Z,2.00
2018-03-09T01:55:42.061Z,5.30
2018-03-09T01:58:10.130Z,2.35
2018-03-09T02:00:38.202Z,2.83
2018-03-09T02:03:06.219Z,2.45
2018-03-09T02:05:34.235Z,5.12
2018-03-09T02:08:02.264Z,3.10
2018-03-09T02:10:30.322Z,3.53
2018-03-09T02:12:58.374Z,4.60
2018-03-09T02:15:26.442Z,2.80
2018-03-09T02:17:54.494Z,2.42
2018-03-09T02:20:22.540Z,2.30
2018-03-09T02:22:50.613Z,2.90
2018-03-09T02:25:18.687Z,3.15
2018-03-09T02:27:46.707Z,4.37
2018-03-09T02:30:14.750Z,3.45
2018-03-09T02:32:42.812Z,4.82
2018-03-09T02:35:10.842Z,4.78
2018-03-09T02:37:38.887Z,8.93
2018-03-09T02:40:06.915Z,4.18
2018-03-09T02:42:34.947Z,4.95
2018-03-09T02:45:02.947Z,4.05
2018-03-09T02:47:31.015Z,3.08
2018-03-09T02:49:59.034Z,4.68
2018-03-09T02:52:27.074Z,6.12
2018-03-09T02:54:55.157Z,9.82
2018-03-09T02:57:24.206Z,3.28
2018-03-09T02:59:52.278Z,4.53
2018-03-09T03:02:20.275Z,6.55
2018-03-09T03:04:48.329Z,3.22
2018-03-09T03:07:16.419Z,3.55
2018-03-09T03:09:44.454Z,5.43
2018-03-09T03:12:12.510Z,3.85
2018-03-09T03:14:40.530Z,5.10
2018-03-09T03:17:08.550Z,4.40
2018-03-09T03:19:37.582Z,4.75
2018-03-09T03:22:05.626Z,5.37
2018-03-09T03:24:33.667Z,3.50
2018-03-09T03:27:01.710Z,3.37
2018-03-09T03:29:29.771Z,4.07
2018-03-09T03:31:58.849Z,4.85
2018-03-09T03:34:26.883Z,6.95
2018-03-09T03:36:56.014Z,4.22
2018-03-09T03:39:24.018Z,17.08
2018-03-09T03:41:52.027Z,6.22
2018-03-09T03:44:20.047Z,7.93
2018-03-09T03:46:48.115Z,5.00
2018-03-09T03:49:16.175Z,5.95
2018-03-09T03:51:44.287Z,6.03
2018-03-09T03:54:12.363Z,4.35
2018-03-09T03:56:40.407Z,6.50
2018-03-09T03:59:08.470Z,4.55
2018-03-09T04:01:36.543Z,7.97
2018-03-09T04:04:04.579Z,5.25
2018-03-09T04:06:32.598Z,6.47
2018-03-09T04:09:00.654Z,6.00
2018-03-09T04:11:28.707Z,6.45
2018-03-09T04:13:56.747Z,6.03
2018-03-09T04:16:24.767Z,5.07
2018-03-09T04:18:52.778Z,5.95
2018-03-09T04:21:20.844Z,5.82
2018-03-09T04:23:48.894Z,8.18
2018-03-09T04:26:16.919Z,4.30
2018-03-09T04:28:44.963Z,5.55
2018-03-09T04:31:13.019Z,7.75
2018-03-09T04:33:41.101Z,4.47
2018-03-09T04:36:09.124Z,8.73
2018-03-09T04:38:37.158Z,6.57
2018-03-09T04:41:05.167Z,5.20
2018-03-09T04:43:33.167Z,6.75
2018-03-09T04:46:01.259Z,6.05
2018-03-09T04:48:29.287Z,5.35
2018-03-09T04:50:57.294Z,6.62
2018-03-09T04:53:25.355Z,8.10
2018-03-09T04:55:53.382Z,6.43
2018-03-09T04:58:21.391Z,5.47
2018-03-09T05:00:49.429Z,6.50
2018-03-09T05:03:17.459Z,7.97
2018-03-09T05:05:45.462Z,5.25
2018-03-09T05:08:13.527Z,6.43
2018-03-09T05:10:41.569Z,5.25
2018-03-09T05:13:09.619Z,7.72
2018-03-09T05:15:37.682Z,8.50
2018-03-09T05:18:05.719Z,10.70
2018-03-09T05:20:33.778Z,8.25
2018-03-09T05:23:01.835Z,5.87
2018-03-09T05:25:29.862Z,6.43
2018-03-09T05:27:57.895Z,8.35
2018-03-09T05:30:25.983Z,6.05
2018-03-09T05:32:53.992Z,7.43
2018-03-09T05:35:21.998Z,7.95
2018-03-09T05:37:50.056Z,8.10
2018-03-09T05:40:18.251Z,8.93
2018-03-09T05:42:46.294Z,7.25
2018-03-09T05:45:14.395Z,8.48
2018-03-09T05:47:42.375Z,11.27
2018-03-09T05:50:10.461Z,12.20
2018-03-09T05:52:38.491Z,11.45
2018-03-09T05:55:06.498Z,10.23
2018-03-09T05:57:34.506Z,14.98
2018-03-09T06:00:02.575Z,13.13
2018-03-09T06:02:30.578Z,10.15
2018-03-09T06:04:59.645Z,14.65
2018-03-09T06:07:27.684Z,14.25
2018-03-09T06:09:55.719Z,11.12
2018-03-09T06:12:23.787Z,9.48
2018-03-09T06:14:51.840Z,11.45
2018-03-09T06:17:19.906Z,10.45
2018-03-09T06:19:47.944Z,10.88
2018-03-09T06:22:15.979Z,9.02
2018-03-09T06:24:44.016Z,10.98
2018-03-09T06:27:12.023Z,12.55
2018-03-09T06:29:40.069Z,11.35
2018-03-09T06:32:08.182Z,12.43
2018-03-09T06:34:36.266Z,10.98
2018-03-09T06:37:04.321Z,14.60
2018-03-09T06:39:32.378Z,18.42
2018-03-09T06:42:00.462Z,12.05
2018-03-09T06:44:28.502Z,17.92
2018-03-09T06:46:56.562Z,16.00
2018-03-09T06:49:24.606Z,17.90
2018-03-09T06:51:52.649Z,10.98
2018-03-09T06:54:20.712Z,12.32
2018-03-09T06:56:48.774Z,12.40
2018-03-09T06:59:16.803Z,12.25
2018-03-09T07:01:44.823Z,15.15
2018-03-09T07:04:12.863Z,15.55
2018-03-09T07:06:40.878Z,13.95
2018-03-09T07:09:08.955Z,16.67
2018-03-09T07:11:36.997Z,14.95
2018-03-09T07:14:05.027Z,17.77
2018-03-09T07:16:33.135Z,17.12
2018-03-09T07:19:01.198Z,14.65
2018-03-09T07:21:29.218Z,15.02
2018-03-09T07:23:57.235Z,14.43
2018-03-09T07:26:25.307Z,15.48
2018-03-09T07:28:53.395Z,18.55
2018-03-09T07:31:21.406Z,13.62
2018-03-09T07:33:49.426Z,13.05
2018-03-09T07:36:17.495Z,11.57
2018-03-09T07:38:45.527Z,15.00
2018-03-09T07:41:13.571Z,15.50
2018-03-09T07:43:41.595Z,15.48
2018-03-09T07:46:09.642Z,12.25
2018-03-09T07:48:37.683Z,17.33
2018-03-09T07:51:05.736Z,13.70
2018-03-09T07:53:33.726Z,12.02
2018-03-09T07:56:01.798Z,15.00
2018-03-09T07:58:29.848Z,21.35
2018-03-09T08:00:57.886Z,12.05
2018-03-09T08:03:25.947Z,12.48
2018-03-09T08:05:53.982Z,17.73
2018-03-09T08:08:21.982Z,15.77
2018-03-09T08:10:50.002Z,15.43
2018-03-09T08:13:19.093Z,12.02
2018-03-09T08:15:47.151Z,20.25
2018-03-09T08:18:15.225Z,13.25
2018-03-09T08:20:43.284Z,14.55
2018-03-09T08:23:11.339Z,18.92
2018-03-09T08:25:39.386Z,14.15
2018-03-09T08:28:07.441Z,14.07
2018-03-09T08:30:35.494Z,16.20
2018-03-09T08:33:03.552Z,17.75
2018-03-09T08:35:31.586Z,17.02
2018-03-09T08:37:59.659Z,12.37
2018-03-09T08:40:27.703Z,14.23
2018-03-09T08:42:55.815Z,14.80
2018-03-09T08:45:23.863Z,13.13
2018-03-09T08:47:53.023Z,15.93
2018-03-09T08:50:21.074Z,11.02
2018-03-09T08:52:49.103Z,17.90
2018-03-09T08:55:17.154Z,14.90
2018-03-09T08:57:45.219Z,16.80
2018-03-09T09:00:13.275Z,14.65
2018-03-09T09:02:41.318Z,13.48
2018-03-09T09:05:09.387Z,13.43
2018-03-09T09:07:37.467Z,11.52
2018-03-09T09:10:05.519Z,14.13
2018-03-09T09:12:33.586Z,12.05
2018-03-09T09:15:01.611Z,12.60
2018-03-09T09:17:30.348Z,24.70
2018-03-09T09:19:58.413Z,15.50
2018-03-09T09:22:26.451Z,12.40
2018-03-09T09:24:54.545Z,11.25
2018-03-09T09:27:22.623Z,14.45
2018-03-09T09:29:50.637Z,15.73
2018-03-09T09:32:18.719Z,12.88
2018-03-09T09:34:46.763Z,16.37
2018-03-09T09:37:14.802Z,19.12
2018-03-09T09:39:42.871Z,15.60
2018-03-09T09:42:10.916Z,14.40
2018-03-09T09:44:38.983Z,14.98
2018-03-09T09:47:07.019Z,13.65
2018-03-09T09:49:35.059Z,14.98
2018-03-09T09:52:03.143Z,13.10
2018-03-09T09:54:31.178Z,11.70
2018-03-09T09:56:59.226Z,14.18
2018-03-09T09:59:27.250Z,13.70
2018-03-09T10:01:55.331Z,15.32
2018-03-09T10:04:23.375Z,13.95
2018-03-09T10:06:51.407Z,26.02
2018-03-09T10:09:19.459Z,15.65
2018-03-09T10:11:48.592Z,17.85
2018-03-09T10:14:16.659Z,15.38
2018-03-09T10:16:44.723Z,24.75
2018-03-09T10:19:12.797Z,19.15
2018-03-09T10:21:40.916Z,21.40
2018-03-09T10:24:08.928Z,16.25
2018-03-09T10:26:36.944Z,18.90
2018-03-09T10:29:04.999Z,18.67
2018-03-09T10:31:33.069Z,17.58
2018-03-09T10:34:01.184Z,18.77
2018-03-09T10:36:30.297Z,20.00
2018-03-09T10:38:58.319Z,20.02
2018-03-09T10:41:26.361Z,21.60
2018-03-09T10:43:54.381Z,25.48
2018-03-09T10:46:22.450Z,21.00
2018-03-09T10:48:50.499Z,24.83
2018-03-09T10:51:18.554Z,22.25
2018-03-09T10:53:46.584Z,22.90
2018-03-09T10:56:14.714Z,23.45
2018-03-09T10:58:42.739Z,18.67
2018-03-09T11:01:10.768Z,18.75
2018-03-09T11:03:38.841Z,26.10
2018-03-09T11:06:06.889Z,20.95
2018-03-09T11:08:35.011Z,28.25
2018-03-09T11:11:03.047Z,23.45
2018-03-09T11:13:31.118Z,21.15
2018-03-09T11:15:59.168Z,19.50
2018-03-09T11:18:27.222Z,19.02
2018-03-09T11:20:55.250Z,18.83
2018-03-09T11:23:23.323Z,21.00
2018-03-09T11:25:51.350Z,19.05
2018-03-09T11:28:19.382Z,16.75
2018-03-09T11:30:47.486Z,20.15
2018-03-09T11:33:15.554Z,27.55
2018-03-09T11:35:43.583Z,21.02
2018-03-09T11:38:11.608Z,25.17
2018-03-09T11:40:39.692Z,19.60
2018-03-09T11:43:07.766Z,19.55
2018-03-09T11:45:35.834Z,20.70
2018-03-09T11:48:03.895Z,17.58
2018-03-09T11:50:31.932Z,18.05
2018-03-09T11:53:00.040Z,17.50
2018-03-09T11:55:28.202Z,19.90
2018-03-09T11:57:56.284Z,19.15
2018-03-09T12:00:24.368Z,22.35
2018-03-09T12:02:52.510Z,18.37
2018-03-09T12:05:20.653Z,19.73
2018-03-09T12:07:48.825Z,18.75
2018-03-09T12:10:16.949Z,21.00
2018-03-09T12:12:45.079Z,19.23
2018-03-09T12:15:13.166Z,18.35
2018-03-09T12:17:41.229Z,13.88
2018-03-09T12:20:09.297Z,16.60
2018-03-09T12:22:37.358Z,25.83
2018-03-09T12:25:05.427Z,18.60
2018-03-09T12:27:33.454Z,14.93
2018-03-09T12:30:01.523Z,17.27
2018-03-09T12:32:29.592Z,20.23
2018-03-09T12:34:57.595Z,16.67
2018-03-09T12:37:25.652Z,14.07
2018-03-09T12:39:53.674Z,15.10
2018-03-09T12:42:22.806Z,14.27
2018-03-09T12:44:50.891Z,14.82
2018-03-09T12:47:18.986Z,15.75
2018-03-09T12:49:47.011Z,17.30
2018-03-09T12:52:15.076Z,16.73
2018-03-09T12:54:43.184Z,14.45
2018-03-09T12:57:11.262Z,17.83
2018-03-09T12:59:39.291Z,13.88
2018-03-09T13:02:07.396Z,15.93
2018-03-09T13:04:35.414Z,17.10
2018-03-09T13:07:03.473Z,15.90
2018-03-09T13:09:35.532Z,15.23
2018-03-09T13:12:06.408Z,21.50
2018-03-09T13:14:34.514Z,12.65
2018-03-09T13:17:08.654Z,14.82
2018-03-09T13:19:36.724Z,15.48
2018-03-09T13:22:04.776Z,13.85
2018-03-09T13:24:32.851Z,15.02
2018-03-09T13:27:00.891Z,14.37
2018-03-09T13:29:28.949Z,15.03
2018-03-09T13:31:56.975Z,17.83
2018-03-09T13:34:25.044Z,17.37
2018-03-09T13:36:53.118Z,14.05
2018-03-09T13:39:21.166Z,13.65
2018-03-09T13:41:50.271Z,13.73
2018-03-09T13:44:18.295Z,14.35
2018-03-09T13:46:46.363Z,15.00
2018-03-09T13:49:14.432Z,16.20
2018-03-09T13:51:42.503Z,15.15
2018-03-09T13:54:10.609Z,15.63
2018-03-09T13:56:38.671Z,15.05
2018-03-09T13:59:06.725Z,13.10
2018-03-09T14:01:34.830Z,13.73
2018-03-09T14:04:04.011Z,12.15
2018-03-09T14:06:32.054Z,24.20
2018-03-09T14:09:00.132Z,13.38
2018-03-09T14:11:28.192Z,14.60
2018-03-09T14:13:56.258Z,19.75
2018-03-09T14:16:24.282Z,18.85
2018-03-09T14:18:52.310Z,11.48
2018-03-09T14:21:20.328Z,15.90
2018-03-09T14:23:48.409Z,18.33
2018-03-09T14:26:16.494Z,16.83
2018-03-09T14:28:44.554Z,14.65
2018-03-09T14:31:12.631Z,13.13
2018-03-09T14:33:40.693Z,16.75
2018-03-09T14:36:08.824Z,14.15
2018-03-09T14:38:36.839Z,16.40
2018-03-09T14:41:04.930Z,22.17
2018-03-09T14:43:32.986Z,16.43
2018-03-09T14:46:02.110Z,17.23
2018-03-09T14:48:30.191Z,15.27
2018-03-09T14:50:58.294Z,19.33
2018-03-09T14:53:26.366Z,15.90
2018-03-09T14:55:54.462Z,20.27
2018-03-09T14:58:22.527Z,17.80
2018-03-09T15:00:50.557Z,18.42
2018-03-09T15:03:18.586Z,14.63
2018-03-09T15:05:46.614Z,18.80
2018-03-09T15:08:14.658Z,14.30
2018-03-09T15:10:42.723Z,15.50
2018-03-09T15:13:10.797Z,16.33
2018-03-09T15:15:38.855Z,17.20
2018-03-09T15:18:06.905Z,15.23
2018-03-09T15:20:34.943Z,14.65
2018-03-09T15:23:03.012Z,19.10
2018-03-09T15:25:31.131Z,16.05
2018-03-09T15:27:59.214Z,14.50
2018-03-09T15:30:30.268Z,20.75
2018-03-09T15:32:58.364Z,17.10
2018-03-09T15:35:26.435Z,14.30
2018-03-09T15:38:00.706Z,17.30
2018-03-09T15:40:28.763Z,15.25
2018-03-09T15:42:56.798Z,19.25
2018-03-09T15:45:24.838Z,20.25
2018-03-09T15:47:52.863Z,17.80
2018-03-09T15:50:20.900Z,18.70
2018-03-09T15:52:48.997Z,15.52
2018-03-09T15:55:17.043Z,16.67
2018-03-09T15:57:45.074Z,16.45
2018-03-09T16:00:13.154Z,19.08
2018-03-09T16:02:41.227Z,21.83
2018-03-09T16:05:09.287Z,25.33
2018-03-09T16:07:37.373Z,25.85
2018-03-09T16:10:05.437Z,28.17
2018-03-09T16:12:35.579Z,30.00
2018-03-09T16:15:03.651Z,28.33
2018-03-09T16:17:31.696Z,30.05
2018-03-09T16:19:59.748Z,31.73
2018-03-09T16:22:27.795Z,29.58
2018-03-09T16:24:55.898Z,25.37
2018-03-09T16:27:23.949Z,28.00
2018-03-09T16:29:52.015Z,28.35
2018-03-09T16:32:20.060Z,29.55
2018-03-09T16:34:48.128Z,29.58
2018-03-09T16:37:16.183Z,26.05
2018-03-09T16:39:44.195Z,28.35
2018-03-09T16:42:12.275Z,27.87
2018-03-09T16:44:40.371Z,22.77
2018-03-09T16:47:08.465Z,26.05
2018-03-09T16:49:36.470Z,25.30
2018-03-09T16:52:04.491Z,25.12
2018-03-09T16:54:32.551Z,24.42
2018-03-09T16:57:00.616Z,25.20
2018-03-09T16:59:29.569Z,27.87
2018-03-09T17:01:57.717Z,35.15
2018-03-09T17:04:26.095Z,25.58
2018-03-09T17:06:54.204Z,33.53
2018-03-09T17:09:22.268Z,34.78
2018-03-09T17:11:50.314Z,36.10
2018-03-09T17:14:18.410Z,32.72
2018-03-09T17:16:46.418Z,31.40
2018-03-09T17:19:14.446Z,31.95
2018-03-09T17:21:42.477Z,38.45
2018-03-09T17:24:10.527Z,38.65
2018-03-09T17:26:38.583Z,29.30
2018-03-09T17:29:06.595Z,30.10
2018-03-09T17:31:34.705Z,33.78
2018-03-09T17:34:02.741Z,33.25
2018-03-09T17:36:30.858Z,27.05
2018-03-09T17:38:59.019Z,33.67
2018-03-09T17:41:27.050Z,34.28
2018-03-09T17:43:57.107Z,27.75
2018-03-09T17:46:25.138Z,29.15
2018-03-09T17:48:53.183Z,29.77
2018-03-09T17:51:21.250Z,27.75
2018-03-09T17:53:49.343Z,34.85
2018-03-09T17:56:17.412Z,23.83
2018-03-09T17:58:45.420Z,29.20
2018-03-09T18:01:13.498Z,30.00
2018-03-09T18:03:41.522Z,29.23
2018-03-09T18:06:09.550Z,28.70
2018-03-09T18:08:37.606Z,26.70
2018-03-09T18:11:05.647Z,25.50
2018-03-09T18:13:33.649Z,27.60
2018-03-09T18:16:01.711Z,26.42
2018-03-09T18:18:29.734Z,29.58
2018-03-09T18:20:57.763Z,30.30
2018-03-09T18:23:25.851Z,27.67
2018-03-09T18:25:53.931Z,26.23
2018-03-09T18:28:21.952Z,25.30
2018-03-09T18:30:50.022Z,25.98
2018-03-09T18:33:18.026Z,26.23
2018-03-09T18:35:46.145Z,30.00
2018-03-09T18:38:14.536Z,26.25
2018-03-09T18:40:42.638Z,32.22
2018-03-09T18:43:10.759Z,28.33
2018-03-09T18:45:41.297Z,23.95
2018-03-09T18:48:11.295Z,24.92
2018-03-09T18:50:40.227Z,26.08
2018-03-09T18:53:08.343Z,29.08
2018-03-09T18:55:36.382Z,27.95
2018-03-09T18:58:04.446Z,30.55
2018-03-09T19:00:32.499Z,31.70
2018-03-09T19:03:00.551Z,31.27
2018-03-09T19:05:28.611Z,27.20
2018-03-09T19:07:56.678Z,28.75
2018-03-09T19:10:24.701Z,28.20
2018-03-09T19:12:52.739Z,29.17
2018-03-09T19:15:20.808Z,32.03
2018-03-09T19:17:48.943Z,27.40
2018-03-09T19:20:17.006Z,29.65
2018-03-09T19:22:45.095Z,26.02
2018-03-09T19:25:13.171Z,26.98
2018-03-09T19:27:41.251Z,25.08
2018-03-09T19:30:09.284Z,25.67
2018-03-09T19:32:37.342Z,26.10
2018-03-09T19:35:05.427Z,23.60
2018-03-09T19:37:33.453Z,28.70
2018-03-09T19:40:01.594Z,29.17
2018-03-09T19:42:29.671Z,23.83
2018-03-09T19:44:57.732Z,31.30
2018-03-09T19:47:26.302Z,39.90
2018-03-09T19:49:54.519Z,33.53
2018-03-09T19:52:22.704Z,33.65
2018-03-09T19:54:50.800Z,28.17
2018-03-09T19:57:18.844Z,30.77
2018-03-09T19:59:46.914Z,33.58
2018-03-09T20:02:15.318Z,25.75
2018-03-09T20:04:43.371Z,31.10
2018-03-09T20:07:11.595Z,27.67
2018-03-09T20:09:39.695Z,29.48
2018-03-09T20:12:07.792Z,31.08
2018-03-09T20:14:35.827Z,34.38
2018-03-09T20:17:03.875Z,30.50
2018-03-09T20:19:32.059Z,28.87
2018-03-09T20:22:00.166Z,30.45
2018-03-09T20:24:28.236Z,32.33
2018-03-09T20:26:56.307Z,28.10
2018-03-09T20:29:24.402Z,31.40
2018-03-09T20:31:52.458Z,30.37
2018-03-09T20:34:20.538Z,29.95
2018-03-09T20:36:48.615Z,28.08
2018-03-09T20:39:16.688Z,28.27
2018-03-09T20:41:44.790Z,29.25
2018-03-09T20:44:12.964Z,34.63
2018-03-09T20:46:41.131Z,32.67
2018-03-09T20:49:09.267Z,30.60
2018-03-09T20:51:37.320Z,32.92
2018-03-09T20:54:05.374Z,30.48
2018-03-09T20:56:33.478Z,29.65
2018-03-09T20:59:01.612Z,33.55
2018-03-09T21:01:29.728Z,31.17
2018-03-09T21:03:57.783Z,29.20
2018-03-09T21:06:25.883Z,30.00
2018-03-09T21:08:54.088Z,31.08
2018-03-09T21:11:22.231Z,28.40
2018-03-09T21:13:50.400Z,29.67
2018-03-09T21:16:18.522Z,27.02
2018-03-09T21:18:46.576Z,27.33
2018-03-09T21:21:14.629Z,26.02
2018-03-09T21:23:42.728Z,32.13
2018-03-09T21:26:10.791Z,33.13
2018-03-09T21:28:39.953Z,28.95
2018-03-09T21:31:07.988Z,26.70
2018-03-09T21:33:36.055Z,30.25
2018-03-09T21:36:04.092Z,24.33
2018-03-09T21:38:32.123Z,27.33
2018-03-09T21:41:00.171Z,24.92
2018-03-09T21:43:28.226Z,29.98
2018-03-09T21:45:56.286Z,25.70
2018-03-09T21:48:24.395Z,34.83
2018-03-09T21:50:52.438Z,22.42
2018-03-09T21:53:20.578Z,26.98
2018-03-09T21:55:48.892Z,23.58
2018-03-09T21:58:17.937Z,24.00
2018-03-09T22:00:46.014Z,23.87
2018-03-09T22:03:14.080Z,22.90
2018-03-09T22:05:42.141Z,29.85
2018-03-09T22:08:10.209Z,26.35
2018-03-09T22:10:38.259Z,25.20
2018-03-09T22:13:06.322Z,24.60
2018-03-09T22:15:34.350Z,22.15
2018-03-09T22:18:02.419Z,26.00
2018-03-09T22:20:30.442Z,24.75
2018-03-09T22:22:58.480Z,25.73
2018-03-09T22:25:26.547Z,29.52
2018-03-09T22:27:54.631Z,27.15
2018-03-09T22:30:22.667Z,24.10
2018-03-09T22:32:50.678Z,26.25
2018-03-09T22:35:18.770Z,25.67
2018-03-09T22:37:46.823Z,29.67
2018-03-09T22:40:14.828Z,26.65
2018-03-09T22:42:42.827Z,31.50
2018-03-09T22:45:10.865Z,27.00
2018-03-09T22:47:38.928Z,38.38
2018-03-09T22:50:06.983Z,26.83
2018-03-09T22:52:35.002Z,26.50
2018-03-09T22:55:03.035Z,26.58
2018-03-09T22:57:31.078Z,26.12
2018-03-09T22:59:59.115Z,27.45
2018-03-09T23:02:27.495Z,29.60
2018-03-09T23:04:55.595Z,28.70
2018-03-09T23:07:23.678Z,26.75
2018-03-09T23:09:51.731Z,27.25
2018-03-09T23:12:19.816Z,25.10
2018-03-09T23:14:47.878Z,26.45
2018-03-09T23:17:15.908Z,28.02
2018-03-09T23:19:43.961Z,27.65
2018-03-09T23:22:11.989Z,32.78
2018-03-09T23:24:40.087Z,28.17
2018-03-09T23:27:08.155Z,26.92
2018-03-09T23:29:36.166Z,31.73
2018-03-09T23:32:04.194Z,26.85
2018-03-09T23:34:32.195Z,28.12
2018-03-09T23:37:00.245Z,26.67
2018-03-09T23:39:28.319Z,28.05
2018-03-09T23:41:56.396Z,23.10
2018-03-09T23:44:24.394Z,24.90
2018-03-09T23:46:52.428Z,25.20
2018-03-09T23:49:20.472Z,19.95
2018-03-09T23:51:48.495Z,22.02
2018-03-09T23:54:16.582Z,27.17
2018-03-09T23:56:44.627Z,27.17
2018-03-09T23:59:12.654Z,24.27
